Latest Weather Observations for Mount Gambier

IDS60801

Issued at 4:01 pm CDT Sunday 26 February 2017 (issued every 30 minutes, with the page automatically refreshed every 10 minutes)

About weather observations | Map of weather stations | Latest weather observations for SA | Other Formats
Station Details ID: 026021 Name: MOUNT GAMBIER AERO Lat: -37.75 Lon: 140.77 Height: 63.0 m
Data from the previous 72 hours. | See also: Recent months at Mount Gambier
Date/Time
CDT
Temp
°C
App
Temp
°C
Dew
Point
°C
Rel
Hum
%
Delta-T
°C
Wind Press
QNH
hPa
Press
MSL
hPa
Rain since
9am
mm
Dir  Spd
km/h
Gust
km/h
Spd
kts
Gust
kts
26/04:00pm 25.8 21.6 13.6 47 7.2 SSW 28 33 15 18 1018.2 1018.0 0.0
26/03:30pm 25.8 24.3 13.0 45 7.5 SSE 13 33 7 18 1018.4 1018.2 0.0
26/03:00pm 27.3 25.2 9.6 33 9.8 SE 11 17 6 9 1018.6 1018.4 0.0
26/02:30pm 26.7 24.8 9.1 33 9.6 ENE 9 19 5 10 1019.0 1018.9 0.0
26/02:00pm 26.4 25.4 10.9 38 8.8 SE 7 13 4 7 1019.3 1019.2 0.0
26/01:30pm 25.5 23.2 10.5 39 8.4 ESE 13 20 7 11 1019.7 1019.6 0.0
26/01:00pm 24.4 22.4 10.3 41 7.8 E 11 22 6 12 1019.9 1019.8 0.0
26/12:30pm 23.8 21.1 10.5 43 7.4 E 15 20 8 11 1020.2 1020.1 0.0
26/12:00pm 23.3 21.2 11.0 46 6.8 ESE 13 19 7 10 1020.5 1020.4 0.0
26/11:30am 21.7 19.6 11.1 51 5.9 ESE 13 24 7 13 1020.9 1020.8 0.0
26/11:00am 20.8 18.1 13.0 61 4.5 SE 19 30 10 16 1021.1 1021.0 0.0
26/10:30am 20.4 17.6 12.6 61 4.4 ESE 19 32 10 17 1021.4 1021.3 0.0
26/10:00am 19.2 15.7 12.2 64 3.9 ESE 22 32 12 17 1021.6 1021.5 0.0
26/09:30am 17.7 14.5 13.0 74 2.6 ESE 22 32 12 17 1021.8 1021.7 0.0
26/09:00am 16.5 14.3 13.4 82 1.7 SE 17 24 9 13 1021.8 1021.7 0.0
26/08:30am 15.8 14.7 14.2 90 0.9 SE 13 19 7 10 1021.7 1021.6 0.0
26/08:00am 14.3 13.0 13.7 96 0.3 SE 13 19 7 10 1021.7 1021.6 0.0
26/07:30am 12.9 11.5 12.3 96 0.3 SSE 11 13 6 7 1021.8 1021.7 0.0
26/07:00am 12.7 11.3 12.2 97 0.3 SE 11 15 6 8 1021.6 1021.5 0.0
26/06:30am 12.4 10.9 11.9 97 0.3 SE 11 15 6 8 1021.4 1021.3 0.0
26/06:00am 11.6 9.9 11.1 97 0.3 SE 11 15 6 8 1021.4 1021.3 0.0
26/05:52am 10.7 8.7 10.1 96 0.3 SE 11 15 6 8 1021.4 1021.3 0.0
26/05:30am 10.9 9.3 10.3 96 0.3 SSE 9 11 5 6 1021.3 1021.2 0.0
26/05:15am 11.4 10.0 10.8 96 0.3 S 9 13 5 7 1021.3 1021.2 0.0
26/05:01am 11.1 9.6 10.5 96 0.3 S 9 13 5 7 1021.3 1021.2 0.0
26/05:00am 11.0 9.5 10.4 96 0.3 S 9 13 5 7 1021.3 1021.2 0.0
26/04:30am 10.7 8.6 9.8 94 0.5 SSE 11 11 6 6 1021.3 1021.2 0.0
26/04:00am 10.6 8.5 9.7 94 0.5 SSE 11 13 6 7 1021.5 1021.4 0.0
26/03:30am 10.8 8.7 9.7 93 0.6 S 11 13 6 7 1021.8 1021.7 0.0
26/03:00am 10.5 8.3 9.3 92 0.6 SSE 11 13 6 7 1021.9 1021.8 0.0
26/02:30am 11.2 9.4 9.6 90 0.8 SSE 9 11 5 6 1022.1 1022.0 0.0
26/02:00am 11.6 9.0 9.3 86 1.2 SSE 13 15 7 8 1022.2 1022.1 0.0
26/01:30am 12.9 10.5 10.1 83 1.4 SSE 13 17 7 9 1022.8 1022.7 0.0
26/01:00am 13.3 10.6 10.3 82 1.6 SSE 15 22 8 12 1023.3 1023.2 0.0
26/12:30am 14.0 11.3 10.4 79 1.9 SSE 15 17 8 9 1023.4 1023.3 0.0
26/12:00am 13.7 10.8 9.7 77 2.1 SSE 15 20 8 11 1023.7 1023.6 0.0
 
Date/Time
CDT
Temp
°C
App
Temp
°C
Dew
Point
°C
Rel
Hum
%
Delta-T
°C
Wind Press
QNH
hPa
Press
MSL
hPa
Rain since
9am
mm
Dir  Spd
km/h
Gust
km/h
Spd
kts
Gust
kts
25/11:30pm 14.0 10.1 8.8 71 2.6 SSE 19 30 10 16 1024.0 1023.9 0.0
25/11:00pm 13.7 10.1 8.5 71 2.6 SE 17 28 9 15 1024.3 1024.2 0.0
25/10:30pm 12.2 8.4 7.5 73 2.3 SE 17 26 9 14 1024.6 1024.5 0.0
25/10:00pm 11.5 8.3 6.8 73 2.2 SE 13 15 7 8 1024.6 1024.5 0.0
25/09:30pm 10.8 7.9 6.6 75 2.0 SSE 11 13 6 7 1024.9 1024.8 0.0
25/09:00pm 11.6 8.0 6.7 72 2.3 SSE 15 19 8 10 1024.8 1024.7 0.0
25/08:30pm 12.3 8.3 6.6 68 2.7 SSE 17 24 9 13 1024.8 1024.7 0.0
25/08:00pm 13.3 8.3 6.6 64 3.2 SSE 22 30 12 16 1024.6 1024.5 0.0
25/07:30pm 14.6 8.2 6.9 60 3.7 SSE 30 39 16 21 1024.4 1024.3 0.0
25/07:00pm 15.0 8.7 7.5 61 3.7 SSE 30 39 16 21 1024.3 1024.2 0.0
25/06:30pm 16.3 10.5 8.0 58 4.2 SSE 28 37 15 20 1024.2 1024.1 0.0
25/06:00pm 16.9 10.6 7.5 54 4.7 S 30 39 16 21 1024.0 1023.9 0.0
25/05:30pm 18.6 12.5 6.8 46 5.9 SSE 28 39 15 21 1023.8 1023.7 0.0
25/05:00pm 18.6 12.5 6.8 46 5.9 SSE 28 39 15 21 1023.9 1023.8 0.0
25/04:30pm 18.8 12.0 6.9 46 6.0 SSE 32 43 17 23 1024.2 1024.1 0.0
25/04:00pm 18.8 12.1 7.3 47 5.8 SSE 32 41 17 22 1024.6 1024.5 0.0
25/03:30pm 19.8 13.1 7.2 44 6.4 SSE 32 44 17 24 1024.6 1024.5 0.0
25/03:00pm 20.2 13.5 5.4 38 7.3 SSE 30 39 16 21 1024.8 1024.7 0.0
25/02:30pm 19.7 12.7 6.8 43 6.5 S 33 41 18 22 1025.1 1025.0 0.0
25/02:00pm 20.2 13.6 7.9 45 6.4 S 32 44 17 24 1025.3 1025.2 0.0
25/01:30pm 19.0 12.6 7.1 46 6.0 S 30 41 16 22 1025.6 1025.5 0.0
25/01:00pm 18.6 12.2 7.1 47 5.8 S 30 39 16 21 1025.8 1025.7 0.0
25/12:30pm 19.1 13.7 7.8 48 5.8 SSE 26 37 14 20 1026.1 1025.9 0.0
25/12:00pm 18.5 12.4 8.2 51 5.3 SSE 30 39 16 21 1026.1 1025.9 0.0
25/11:30am 17.8 11.5 5.7 45 5.9 S 28 41 15 22 1026.6 1026.4 0.0
25/11:00am 18.8 12.2 6.0 43 6.3 SSE 30 39 16 21 1026.9 1026.7 0.0
25/10:30am 17.5 11.2 5.8 46 5.7 SSE 28 37 15 20 1026.9 1026.7 0.0
25/10:00am 16.7 11.2 7.6 55 4.6 SE 26 37 14 20 1026.7 1026.5 0.0
25/09:30am 16.9 12.7 9.8 63 3.7 SE 22 35 12 19 1026.7 1026.5 0.0
25/09:00am 16.4 11.5 10.0 66 3.4 SE 26 35 14 19 1026.5 1026.3 0.0
25/08:30am 14.1 10.9 9.9 76 2.2 SE 17 26 9 14 1026.9 1026.7 0.0
25/08:00am 12.9 11.0 10.4 85 1.3 S 11 15 6 8 1026.9 1026.7 0.0
25/07:30am 11.4 9.8 10.1 92 0.7 S 9 11 5 6 1026.6 1026.4 0.0
25/07:00am 9.8 8.0 8.1 89 0.8 SW 7 9 4 5 1026.3 1026.1 0.0
25/06:30am 10.3 8.8 8.6 89 0.8 S 6 9 3 5 1026.1 1025.9 0.0
25/06:00am 11.1 9.7 9.0 87 1.0 ESE 6 7 3 4 1025.8 1025.7 0.0
25/05:30am 11.0 8.6 8.8 86 1.1 SSE 11 13 6 7 1025.7 1025.6 0.0
25/05:00am 11.6 9.4 9.3 86 1.2 S 11 15 6 8 1026.0 1025.8 0.0
25/04:30am 10.8 8.4 8.6 86 1.1 S 11 15 6 8 1025.8 1025.7 0.0
25/04:00am 11.8 9.2 9.4 85 1.2 S 13 15 7 8 1026.0 1025.8 0.0
25/03:30am 10.9 8.9 8.7 86 1.1 S 9 11 5 6 1026.0 1025.8 0.0
25/03:00am 11.6 9.8 9.3 86 1.2 S 9 11 5 6 1026.2 1026.0 0.0
25/02:30am 13.1 11.9 10.3 83 1.4 ESE 7 11 4 6 1026.3 1026.1 0.0
25/02:00am 12.4 10.8 10.1 86 1.2 SSW 9 9 5 5 1026.6 1026.4 0.0
25/01:30am 12.4 11.3 10.1 86 1.2 SSE 6 7 3 4 1026.6 1026.4 0.0
25/01:00am 12.4 10.4 10.3 87 1.1 S 11 13 6 7 1026.8 1026.6 0.0
25/12:30am 12.8 11.3 10.7 87 1.1 S 9 9 5 5 1027.0 1026.8 0.0
25/12:00am 11.8 9.9 10.4 91 0.7 S 11 13 6 7 1027.2 1027.0 0.0
 
Date/Time
CDT
Temp
°C
App
Temp
°C
Dew
Point
°C
Rel
Hum
%
Delta-T
°C
Wind Press
QNH
hPa
Press
MSL
hPa
Rain since
9am
mm
Dir  Spd
km/h
Gust
km/h
Spd
kts
Gust
kts
24/11:30pm 10.9 9.0 9.0 88 0.9 S 9 11 5 6 1027.3 1027.1 0.0
24/11:00pm 11.4 9.6 9.3 87 1.1 S 9 11 5 6 1027.3 1027.1 0.0
24/10:30pm 11.6 9.4 9.5 87 1.1 S 11 13 6 7 1027.5 1027.3 0.0
24/10:00pm 11.8 10.0 9.4 85 1.2 SSE 9 11 5 6 1027.4 1027.2 0.0
24/09:30pm 12.5 10.4 9.9 84 1.3 S 11 11 6 6 1027.4 1027.2 0.0
24/09:00pm 12.8 10.6 9.3 79 1.8 SSE 11 11 6 6 1027.2 1027.0 0.0
24/08:30pm 13.6 11.4 9.5 76 2.1 SSE 11 15 6 8 1027.0 1026.8 0.0
24/08:00pm 14.7 11.4 9.5 71 2.7 S 17 24 9 13 1026.9 1026.7 0.0
24/07:30pm 15.8 11.1 9.2 65 3.4 S 24 30 13 16 1026.7 1026.5 0.0
24/07:00pm 17.4 14.2 9.8 61 4.0 SSE 17 24 9 13 1026.4 1026.2 0.0
24/06:30pm 17.7 12.9 8.8 56 4.6 S 24 32 13 17 1026.2 1026.0 0.0
24/06:00pm 17.9 14.0 9.3 57 4.5 S 20 30 11 16 1026.2 1026.0 0.0
24/05:30pm 18.5 14.7 9.8 57 4.6 S 20 32 11 17 1026.2 1026.0 0.0
24/05:00pm 18.3 13.6 9.1 55 4.8 SSW 24 30 13 16 1026.1 1025.9 0.0
24/04:30pm 18.8 13.6 9.0 53 5.1 SSW 26 33 14 18 1026.1 1025.9 0.0
24/04:00pm 17.8 12.8 9.7 59 4.3 SSW 26 32 14 17 1026.3 1026.1 0.0
24/03:30pm 19.2 13.7 9.1 52 5.3 S 28 35 15 19 1026.3 1026.1 0.0
24/03:00pm 20.0 14.7 8.4 47 6.0 SSW 26 37 14 20 1026.4 1026.2 0.0
24/02:30pm 19.9 14.8 7.6 45 6.3 S 24 37 13 20 1026.5 1026.3 0.0
24/02:00pm 19.4 15.0 9.0 51 5.5 S 22 32 12 17 1026.7 1026.5 0.0
24/01:30pm 18.7 13.0 8.4 51 5.3 SSW 28 37 15 20 1026.8 1026.6 0.0
24/01:00pm 18.5 13.9 9.6 56 4.7 SSW 24 32 13 17 1026.9 1026.7 0.0
24/12:30pm 18.2 13.4 8.7 54 4.9 SSW 24 32 13 17 1027.1 1026.9 0.0
24/12:00pm 18.3 14.2 8.8 54 4.9 S 20 26 11 14 1027.3 1027.1 0.0
24/11:30am 18.4 14.2 8.4 52 5.1 SSW 20 28 11 15 1027.4 1027.2 0.0
24/11:00am 18.0 13.2 8.8 55 4.8 SSW 24 33 13 18 1027.3 1027.1 0.0
24/10:30am 17.1 12.2 8.3 56 4.5 SSW 24 33 13 18 1027.3 1027.1 0.0
24/10:00am 17.2 13.0 8.1 55 4.6 SW 20 28 11 15 1027.1 1026.9 0.0
24/09:30am 16.7 11.8 8.4 58 4.2 SW 24 32 13 17 1027.0 1026.8 0.0
24/09:00am 16.1 13.3 10.0 67 3.2 SW 15 22 8 12 1026.6 1026.4 0.0
24/08:30am 15.4 13.1 9.1 66 3.2 SW 11 15 6 8 1026.3 1026.1 0.0
24/08:00am 14.6 13.1 9.2 70 2.8 S 7 13 4 7 1026.1 1025.9 0.0
24/07:30am 14.3 12.8 9.1 71 2.6 SSW 7 7 4 4 1025.7 1025.6 0.0
24/07:00am 13.9 12.2 8.5 70 2.7 SW 7 9 4 5 1025.4 1025.3 0.0
24/06:30am 13.9 12.1 8.1 68 2.9 SSW 7 9 4 5 1025.0 1024.9 0.0
24/06:00am 13.8 11.6 8.0 68 2.9 S 9 11 5 6 1024.8 1024.7 0.0
24/05:30am 14.2 11.9 7.5 64 3.3 S 9 11 5 6 1024.5 1024.4 0.0
24/05:00am 13.8 11.5 7.6 66 3.1 SW 9 11 5 6 1024.5 1024.4 0.0
24/04:30am 13.7 10.7 7.5 66 3.0 SSW 13 17 7 9 1024.2 1024.1 0.0
24/04:00am 13.9 11.3 7.9 67 3.0 SW 11 15 6 8 1024.3 1024.2 0.0
24/03:30am 13.6 11.1 8.2 70 2.7 SW 11 15 6 8 1024.4 1024.3 0.0
24/03:00am 13.3 11.1 8.0 70 2.6 SSW 9 13 5 7 1024.2 1024.1 0.0
24/02:30am 12.9 11.1 8.0 72 2.4 WSW 7 7 4 4 1024.1 1024.0 0.0
24/02:00am 13.1 11.2 7.5 69 2.7 SW 7 9 4 5 1024.3 1024.2 0.0
24/01:30am 13.2 11.0 7.9 70 2.6 SW 9 11 5 6 1024.4 1024.3 0.0
24/01:00am 13.7 11.2 8.3 70 2.7 SSW 11 13 6 7 1024.5 1024.4 0.0
24/12:30am 14.1 12.1 8.5 69 2.8 SSW 9 11 5 6 1024.8 1024.7 0.0
24/12:00am 14.3 12.0 9.1 71 2.6 SSW 11 13 6 7 1024.9 1024.8 0.0
 
Date/Time
CDT
Temp
°C
App
Temp
°C
Dew
Point
°C
Rel
Hum
%
Delta-T
°C
Wind Press
QNH
hPa
Press
MSL
hPa
Rain since
9am
mm
Dir  Spd
km/h
Gust
km/h
Spd
kts
Gust
kts
23/11:30pm 14.4 12.6 9.4 72 2.6 SW 9 13 5 7 1024.8 1024.7 0.0
23/11:00pm 14.4 12.6 9.6 73 2.5 WSW 9 11 5 6 1024.7 1024.6 0.0
23/10:30pm 14.5 12.8 9.7 73 2.5 SSW 9 11 5 6 1024.6 1024.5 0.0
23/10:00pm 14.7 13.0 9.7 72 2.6 SW 9 13 5 7 1024.5 1024.4 0.0
23/09:30pm 14.6 12.9 9.8 73 2.5 SSW 9 11 5 6 1024.3 1024.2 0.0
23/09:00pm 14.9 12.8 9.9 72 2.6 SW 11 15 6 8 1023.8 1023.7 0.0
23/08:30pm 15.1 12.7 10.1 72 2.6 SW 13 17 7 9 1023.5 1023.4 0.0
23/08:00pm 15.4 12.3 10.2 71 2.7 SW 17 22 9 12 1023.0 1022.9 0.0
23/07:30pm 15.8 12.4 10.6 71 2.8 SW 19 26 10 14 1022.5 1022.4 0.0
23/07:00pm 16.3 13.5 11.2 72 2.7 SW 17 22 9 12 1022.2 1022.1 0.0
23/06:30pm 16.7 13.5 11.2 70 3.0 SW 19 28 10 15 1021.9 1021.8 0.0
23/06:00pm 17.0 13.9 11.7 71 2.9 SW 19 26 10 14 1021.8 1021.7 0.0
23/05:30pm 17.5 14.4 11.5 68 3.3 WSW 19 28 10 15 1021.5 1021.4 0.0
23/05:00pm 17.6 14.1 12.1 70 3.0 WSW 22 30 12 16 1021.2 1021.1 0.0
23/04:30pm 17.0 13.5 12.3 74 2.6 WSW 22 30 12 16 1021.0 1020.9 0.0

Other Formats:

Comma delimited format used in spreadsheet applications
http://www.bom.gov.au/fwo/IDS60801/IDS60801.94821.axf

JavaScript Object Notation format (JSON) in row-major order
http://www.bom.gov.au/fwo/IDS60801/IDS60801.94821.json